Terminal Aerodrome Forecast
Issued by NWS

Home | Current Version | Previous Version | Graphics & Text | Print | Product List | Glossary On
Versions: 1 2 3 4 5 6 7 8 9 10 11 12 13 14 15 16 17
000
FTUS45 KGGW 142322
TAFSDY
TAF
KSDY 142322Z 1500/1524 29009KT P6SM BKN120
     FM150300 32013G20KT P6SM SCT035
     FM150900 31008KT P6SM SCT015
     FM151600 VRB06KT P6SM FEW040 SCT080=

USA.gov is the U.S. government's official web portal to all federal, state and local government web resources and services.